Time;durP1;ratioP1;P1;durP2;ratioP2;P2;SDS_P1;SDS_P2;PMS_P1;PMS_P2;Temp;Humidity;BMP_temperature;BMP_pressure;BME280_temperature;BME280_humidity;BME280_pressure;Samples;Min_cycle;Max_cycle;Signal;HPM_P1;HPM_P2
2022/05/19 21:30:21;;;;;;;14.13;5.10;;;436.00;1843.20;;;;;;6089056;22;1362765;-67
2022/05/19 21:32:47;;;;;;;5.28;3.88;;;435.80;1843.20;;;;;;6185362;23;20015;-65
2022/05/19 21:35:13;;;;;;;12.88;4.78;;;435.70;1868.80;;;;;;6185039;23;20541;-65
2022/05/19 21:37:39;;;;;;;11.13;4.90;;;;;;;;;;6184784;23;20024;-62
2022/05/19 21:40:07;;;;;;;5.18;3.50;;;;;;;;;;6186189;23;20005;-62
2022/05/19 21:42:33;;;;;;;7.03;3.67;;;;;;;;;;6185947;23;20372;-62
2022/05/19 21:44:59;;;;;;;6.50;3.85;;;;;;;;;;6185761;23;20009;-64
2022/05/19 21:47:25;;;;;;;8.75;4.07;;;;;;;;;;6185399;23;20428;-63
2022/05/19 21:49:51;;;;;;;6.30;4.28;;;;;;;;;;6185807;23;20051;-64
2022/05/19 21:55:12;;;;;;;6.82;4.22;;;;;;;;;;6185821;23;20151;-63
2022/05/19 21:57:38;;;;;;;7.35;4.15;;;;;;;;;;6185592;23;19997;-63
2022/05/19 22:00:06;;;;;;;6.28;3.97;;;;;;;;;;6185504;23;20009;-63
2022/05/19 22:02:32;;;;;;;7.05;3.72;;;;;;;;;;6184309;23;20020;-63
2022/05/19 22:04:58;;;;;;;5.75;3.65;;;;;;;;;;6185729;23;20067;-63
2022/05/19 22:07:33;;;;;;;8.57;3.92;;;435.30;1868.80;;;;;;6185708;23;19997;-63
2022/05/19 22:09:59;;;;;;;11.40;4.00;;;435.20;1868.80;;;;;;6185819;23;20005;-64
2022/05/19 22:12:25;;;;;;;5.97;3.72;;;435.20;1868.80;;;;;;6185975;23;20005;-62
2022/05/19 22:14:51;;;;;;;6.22;3.75;;;435.20;1868.80;;;;;;6185625;23;20305;-63
2022/05/19 22:17:17;;;;;;;8.43;4.20;;;435.20;1868.80;;;;;;6158477;23;20059;-63
2022/05/19 22:19:42;;;;;;;11.40;3.85;;;410.50;1894.40;;;;;;6185661;23;20328;-62
2022/05/19 22:22:08;;;;;;;8.57;4.80;;;410.50;1894.40;;;;;;6185523;23;20005;-62
2022/05/19 22:24:34;;;;;;;9.30;3.60;;;410.50;1894.40;;;;;;6185593;23;20376;-62
2022/05/19 22:27:02;;;;;;;5.32;3.10;;;;;;;;;;6159106;23;20136;-62
2022/05/19 22:29:28;;;;;;;9.10;3.58;;;;;;;;;;6185606;23;20376;-63
2022/05/19 22:31:55;;;;;;;4.82;3.35;;;;;;;;;;6157856;23;20100;-62
2022/05/19 22:34:21;;;;;;;5.45;4.15;;;;;;;;;;6155992;23;20488;-63
2022/05/19 22:36:47;;;;;;;7.57;4.22;;;;;;;;;;6155542;23;20077;-63
2022/05/19 22:39:13;;;;;;;5.82;3.95;;;;;;;;;;6155800;23;20011;-63
2022/05/19 22:41:39;;;;;;;9.45;3.80;;;;;;;;;;6155574;23;19994;-62
2022/05/19 22:44:06;;;;;;;12.77;5.13;;;;;;;;;;6155418;23;20045;-63
2022/05/19 22:46:32;;;;;;;10.55;5.35;;;;;;;;;;6155611;23;20001;-62
2022/05/19 22:48:58;;;;;;;7.95;5.03;;;;;;;;;;6155783;23;20029;-62
2022/05/19 22:51:24;;;;;;;10.27;3.95;;;;;;;;;;6155760;23;20006;-62
2022/05/19 22:53:50;;;;;;;6.85;4.45;;;;;;;;;;6155612;23;20005;-62
2022/05/19 22:56:23;;;;;;;7.20;4.55;;;;;;;;;;6155405;23;20008;-62
2022/05/19 22:58:50;;;;;;;7.47;3.50;;;409.80;1945.60;;;;;;6155481;23;20089;-62
2022/05/19 23:01:15;;;;;;;9.65;3.90;;;409.70;1945.60;;;;;;6155655;23;20056;-63
2022/05/19 23:03:41;;;;;;;8.60;4.93;;;409.80;1920.00;;;;;;6155434;23;20014;-63
2022/05/19 23:06:07;;;;;;;10.55;4.72;;;409.90;1920.00;;;;;;6155287;23;20088;-63
2022/05/19 23:08:33;;;;;;;6.65;4.43;;;409.90;1920.00;;;;;;6155662;23;20005;-63
2022/05/19 23:11:02;;;;;;;7.93;3.70;;;409.90;1920.00;;;;;;6155174;23;20068;-62
2022/05/19 23:13:27;;;;;;;7.07;4.43;;;409.80;1920.00;;;;;;6129310;23;20106;-63
2022/05/19 23:15:53;;;;;;;13.23;7.38;;;409.80;1920.00;;;;;;6129571;23;20044;-63
2022/05/19 23:18:19;;;;;;;7.75;4.00;;;;;;;;;;6155564;23;20081;-63
2022/05/19 23:20:46;;;;;;;6.90;5.28;;;;;;;;;;6155478;23;20005;-61
2022/05/19 23:23:12;;;;;;;8.07;5.32;;;;;;;;;;6155729;23;20005;-62
2022/05/19 23:25:38;;;;;;;8.38;5.38;;;;;;;;;;6155825;23;20005;-61
2022/05/19 23:28:08;;;;;;;24.23;15.95;;;;;;;;;;6155340;23;20336;-61
2022/05/19 23:30:34;;;;;;;8.05;5.43;;;;;;;;;;6155000;23;20027;-64
2022/05/19 23:35:49;;;;;;;9.38;3.35;;;;;;;;;;6155012;23;20068;-63
2022/05/19 23:38:15;;;;;;;5.70;4.30;;;;;;;;;;6155625;23;20029;-62
2022/05/19 23:40:41;;;;;;;5.55;4.18;;;;;;;;;;6155598;23;20012;-63
2022/05/19 23:43:08;;;;;;;6.47;3.67;;;;;;;;;;6155532;23;20036;-62
2022/05/19 23:45:34;;;;;;;4.65;3.33;;;;;;;;;;6155483;23;20076;-63
2022/05/19 23:48:00;;;;;;;7.22;3.63;;;;;;;;;;6155352;23;20004;-62
2022/05/19 23:50:27;;;;;;;4.95;3.80;;;;;;;;;;6155430;23;20002;-62
2022/05/19 23:52:54;;;;;;;6.18;4.07;;;;;;;;;;6155101;23;20060;-61
2022/05/19 23:55:21;;;;;;;4.75;3.60;;;;;;;;;;6129041;23;20374;-61
2022/05/19 23:57:47;;;;;;;4.50;3.40;;;;;;;;;;6155257;23;19997;-62
